createdAt,value
2023-04-09T00:02:14.592Z,30.23
2023-04-09T00:07:16.258Z,29.38
2023-04-09T00:12:17.923Z,29.67
2023-04-09T00:17:19.565Z,28.45
2023-04-09T00:22:21.194Z,28.67
2023-04-09T00:27:23.165Z,26.85
2023-04-09T00:32:24.815Z,30.05
2023-04-09T00:37:26.506Z,28.85
2023-04-09T00:42:32.265Z,29.58
2023-04-09T00:47:35.034Z,29.08
2023-04-09T00:52:36.772Z,28.30
2023-04-09T00:57:38.380Z,29.83
2023-04-09T01:02:40.957Z,29.38
2023-04-09T01:07:54.998Z,28.38
2023-04-09T01:13:26.113Z,27.80
2023-04-09T01:18:36.345Z,29.00
2023-04-09T01:23:56.119Z,27.75
2023-04-09T01:29:00.504Z,27.55
2023-04-09T01:34:02.452Z,27.02
2023-04-09T01:39:06.233Z,27.85
2023-04-09T01:44:08.994Z,27.05
2023-04-09T01:49:11.178Z,27.80
2023-04-09T01:54:13.013Z,27.10
2023-04-09T01:59:15.857Z,25.75
2023-04-09T02:10:58.720Z,25.98
2023-04-09T02:16:01.735Z,27.40
2023-04-09T02:21:05.667Z,26.95
2023-04-09T02:26:07.403Z,27.20
2023-04-09T02:31:09.158Z,27.73
2023-04-09T02:36:13.953Z,27.50
2023-04-09T02:41:15.960Z,26.65
2023-04-09T02:46:17.684Z,26.70
2023-04-09T02:51:20.221Z,28.58
2023-04-09T02:56:21.851Z,24.77
2023-04-09T03:01:23.542Z,25.92
2023-04-09T03:06:25.449Z,26.70
2023-04-09T03:11:27.169Z,25.35
2023-04-09T03:16:28.810Z,28.75
2023-04-09T03:21:30.675Z,27.30
2023-04-09T03:26:36.505Z,28.55
2023-04-09T03:31:40.101Z,26.23
2023-04-09T03:36:42.786Z,28.33
2023-04-09T03:41:58.217Z,26.83
2023-04-09T03:47:03.708Z,28.73
2023-04-09T03:52:06.765Z,27.17
2023-04-09T03:57:12.667Z,27.10
2023-04-09T04:02:16.827Z,27.27
2023-04-09T04:07:23.055Z,26.63
2023-04-09T04:12:31.879Z,27.88
2023-04-09T04:17:43.699Z,25.38
2023-04-09T04:22:57.884Z,25.92
2023-04-09T04:28:00.968Z,26.60
2023-04-09T04:33:11.473Z,25.75
2023-04-09T04:38:19.334Z,25.27
2023-04-09T04:43:20.996Z,25.42
2023-04-09T04:48:25.697Z,25.20
2023-04-09T04:53:27.885Z,25.08
2023-04-09T04:58:32.044Z,26.23
2023-04-09T05:03:36.080Z,25.25
2023-04-09T05:08:46.403Z,25.67
2023-04-09T05:13:48.914Z,26.90
2023-04-09T05:18:51.015Z,26.73
2023-04-09T05:23:53.070Z,26.50
2023-04-09T05:28:54.876Z,26.55
2023-04-09T05:33:58.080Z,27.77
2023-04-09T05:39:09.263Z,25.58
2023-04-09T05:44:11.911Z,24.92
2023-04-09T05:49:14.628Z,23.58
2023-04-09T05:54:18.261Z,21.10
2023-04-09T05:59:19.963Z,21.60
2023-04-09T06:04:21.951Z,22.35
2023-04-09T06:09:23.664Z,20.77
2023-04-09T06:14:25.351Z,21.33
2023-04-09T06:19:27.248Z,19.13
2023-04-09T06:24:30.937Z,18.65
2023-04-09T06:29:32.570Z,21.25
2023-04-09T06:34:34.172Z,21.58
2023-04-09T06:39:36.523Z,20.10
2023-04-09T06:44:39.029Z,18.05
2023-04-09T06:49:40.623Z,18.50
2023-04-09T06:54:42.707Z,18.88
2023-04-09T06:59:44.391Z,19.10
2023-04-09T07:04:46.081Z,19.42
2023-04-09T07:09:48.645Z,21.60
2023-04-09T07:14:50.268Z,20.98
2023-04-09T07:19:51.988Z,21.25
2023-04-09T07:24:54.445Z,20.77
2023-04-09T07:29:59.807Z,19.10
2023-04-09T07:35:03.103Z,20.60
2023-04-09T07:40:05.146Z,21.40
2023-04-09T07:45:07.474Z,18.98
2023-04-09T07:50:09.612Z,19.75
2023-04-09T07:55:11.327Z,20.85
2023-04-09T08:00:13.392Z,20.75
2023-04-09T08:05:15.077Z,18.67
2023-04-09T08:10:16.991Z,19.20
2023-04-09T08:15:18.738Z,19.45
2023-04-09T08:20:20.824Z,19.05
2023-04-09T08:25:22.528Z,16.63
2023-04-09T08:30:24.153Z,19.75
2023-04-09T08:35:25.768Z,17.83
2023-04-09T08:40:28.778Z,18.67
2023-04-09T08:45:30.492Z,18.65
2023-04-09T08:50:36.098Z,20.35
2023-04-09T08:55:38.553Z,18.27
2023-04-09T09:00:41.165Z,21.45
2023-04-09T09:05:45.767Z,19.05
2023-04-09T09:10:47.758Z,19.13
2023-04-09T09:15:55.055Z,19.23
2023-04-09T09:21:17.521Z,20.52
2023-04-09T09:26:22.997Z,19.80
2023-04-09T09:31:25.734Z,19.20
2023-04-09T09:36:35.637Z,20.45
2023-04-09T09:41:37.981Z,19.00
2023-04-09T09:46:42.772Z,20.77
2023-04-09T09:51:44.854Z,21.42
2023-04-09T09:56:47.410Z,19.20
2023-04-09T10:01:57.330Z,19.73
2023-04-09T10:07:01.825Z,19.10
2023-04-09T10:12:05.509Z,19.30
2023-04-09T10:17:07.705Z,20.42
2023-04-09T10:22:11.943Z,21.45
2023-04-09T10:27:17.067Z,20.58
2023-04-09T10:32:26.599Z,20.67
2023-04-09T10:37:28.862Z,20.75
2023-04-09T10:42:35.433Z,19.50
2023-04-09T10:47:39.363Z,19.55
2023-04-09T10:52:44.539Z,20.15
2023-04-09T10:57:46.238Z,23.48
2023-04-09T11:03:02.938Z,23.52
2023-04-09T11:08:09.895Z,24.38
2023-04-09T11:13:13.524Z,22.75
2023-04-09T11:18:19.851Z,23.10
2023-04-09T11:23:21.584Z,22.55
2023-04-09T11:28:23.932Z,24.98
2023-04-09T11:33:32.550Z,22.35
2023-04-09T11:38:34.165Z,20.15
2023-04-09T11:43:36.623Z,19.00
2023-04-09T11:48:38.281Z,17.10
2023-04-09T11:53:40.769Z,20.08
2023-04-09T11:58:49.110Z,19.88
2023-04-09T12:03:54.761Z,19.42
2023-04-09T12:08:58.689Z,18.15
2023-04-09T12:14:12.632Z,18.27
2023-04-09T12:19:14.248Z,18.70
2023-04-09T12:24:17.210Z,21.60
2023-04-09T12:29:21.384Z,22.60
2023-04-09T12:34:23.040Z,22.10
2023-04-09T12:39:24.667Z,21.77
2023-04-09T12:44:26.491Z,22.63
2023-04-09T12:49:28.106Z,20.90
2023-04-09T12:54:29.816Z,22.73
2023-04-09T12:59:31.511Z,22.13
2023-04-09T13:04:33.341Z,19.08
2023-04-09T13:09:35.501Z,19.70
2023-04-09T13:14:40.100Z,20.05
2023-04-09T13:19:42.826Z,19.70
2023-04-09T13:24:44.618Z,17.85
2023-04-09T13:29:46.244Z,17.20
2023-04-09T13:34:47.942Z,22.20
2023-04-09T13:39:50.520Z,19.98
2023-04-09T13:44:52.191Z,18.95
2023-04-09T13:49:53.826Z,17.35
2023-04-09T13:54:55.587Z,19.40
2023-04-09T13:59:57.221Z,18.58
2023-04-09T14:04:58.848Z,19.42
2023-04-09T14:10:00.498Z,18.88
2023-04-09T14:15:02.477Z,19.83
2023-04-09T14:20:04.415Z,18.27
2023-04-09T14:25:06.720Z,16.08
2023-04-09T14:30:10.354Z,17.42
2023-04-09T14:35:12.005Z,19.55
2023-04-09T14:40:13.854Z,17.67
2023-04-09T14:45:15.868Z,17.05
2023-04-09T14:50:17.565Z,17.42
2023-04-09T14:55:19.228Z,15.02
2023-04-09T15:00:21.189Z,16.70
2023-04-09T15:05:22.987Z,17.52
2023-04-09T15:10:24.732Z,18.73
2023-04-09T15:15:26.872Z,17.20
2023-04-09T15:20:28.509Z,15.95
2023-04-09T15:25:30.731Z,14.55
2023-04-09T15:30:32.716Z,12.68
2023-04-09T15:35:35.261Z,13.43
2023-04-09T15:40:36.904Z,10.77
2023-04-09T15:45:38.539Z,10.68
2023-04-09T15:50:40.198Z,9.43
2023-04-09T15:55:42.443Z,9.73
2023-04-09T16:00:44.064Z,8.57
2023-04-09T16:05:48.073Z,11.07
2023-04-09T16:10:49.710Z,11.65
2023-04-09T16:15:51.318Z,10.20
2023-04-09T16:20:54.137Z,8.07
2023-04-09T16:25:55.738Z,10.63
2023-04-09T16:30:57.352Z,11.85
2023-04-09T16:35:58.989Z,12.15
2023-04-09T16:41:00.930Z,12.63
2023-04-09T16:46:02.664Z,12.13
2023-04-09T16:51:04.443Z,14.48
2023-04-09T16:56:07.005Z,13.73
2023-04-09T17:01:08.761Z,14.73
2023-04-09T17:06:10.441Z,16.08
2023-04-09T17:11:16.574Z,16.30
2023-04-09T17:16:18.436Z,15.68
2023-04-09T17:21:20.357Z,15.80
2023-04-09T17:26:21.987Z,17.10
2023-04-09T17:31:24.483Z,16.75
2023-04-09T17:36:26.323Z,17.25
2023-04-09T17:41:27.972Z,16.17
2023-04-09T17:46:30.352Z,16.80
2023-04-09T17:51:32.024Z,18.60
2023-04-09T17:56:35.536Z,17.00
2023-04-09T18:01:37.303Z,17.60
2023-04-09T18:06:38.981Z,17.08
2023-04-09T18:11:40.840Z,17.40
2023-04-09T18:16:42.734Z,18.15
2023-04-09T18:21:44.401Z,18.83
2023-04-09T18:26:46.017Z,18.60
2023-04-09T18:31:47.654Z,20.05
2023-04-09T18:36:50.200Z,18.90
2023-04-09T18:41:51.792Z,18.67
2023-04-09T18:46:53.450Z,18.75
2023-04-09T18:51:56.738Z,21.02
2023-04-09T18:56:58.414Z,24.25
2023-04-09T19:02:00.912Z,36.55
2023-04-09T19:07:02.950Z,37.90
2023-04-09T19:12:05.025Z,37.35
2023-04-09T19:17:07.333Z,32.10
2023-04-09T19:22:08.968Z,32.72
2023-04-09T19:27:11.562Z,28.30
2023-04-09T19:32:13.417Z,27.58
2023-04-09T19:37:16.481Z,34.08
2023-04-09T19:42:18.087Z,31.70
2023-04-09T19:47:19.843Z,33.05
2023-04-09T19:52:21.808Z,32.35
2023-04-09T19:57:23.502Z,30.42
2023-04-09T20:02:25.581Z,34.30
2023-04-09T20:07:27.329Z,28.27
2023-04-09T20:12:29.652Z,30.08
2023-04-09T20:17:32.067Z,35.25
2023-04-09T20:22:33.976Z,33.40
2023-04-09T20:27:35.611Z,31.30
2023-04-09T20:32:37.846Z,28.90
2023-04-09T20:37:40.766Z,30.60
2023-04-09T20:42:42.519Z,28.75
2023-04-09T20:47:44.180Z,25.30
2023-04-09T20:52:45.866Z,30.00
2023-04-09T20:57:47.478Z,28.92
2023-04-09T21:02:49.229Z,31.10
2023-04-09T21:07:52.369Z,27.15
2023-04-09T21:12:54.055Z,27.92
2023-04-09T21:17:55.726Z,30.83
2023-04-09T21:22:57.986Z,34.15
2023-04-09T21:27:59.713Z,33.38
2023-04-09T21:33:02.358Z,32.17
2023-04-09T21:38:04.318Z,33.85
2023-04-09T21:43:05.970Z,35.55
2023-04-09T21:48:09.219Z,30.85
2023-04-09T21:53:11.038Z,30.40
2023-04-09T21:58:12.735Z,35.05
2023-04-09T22:03:14.478Z,31.75
2023-04-09T22:08:16.237Z,32.30
2023-04-09T22:13:17.847Z,31.75
2023-04-09T22:18:19.472Z,34.75
2023-04-09T22:23:21.389Z,36.47
2023-04-09T22:28:24.167Z,31.17
2023-04-09T22:33:28.854Z,34.67
2023-04-09T22:38:30.610Z,33.22
2023-04-09T22:43:32.321Z,34.40
2023-04-09T22:48:40.771Z,29.92
2023-04-09T22:53:46.788Z,29.25
2023-04-09T22:58:48.472Z,30.55
2023-04-09T23:03:50.568Z,29.40
2023-04-09T23:08:52.592Z,29.80
2023-04-09T23:13:54.565Z,31.95
2023-04-09T23:18:56.389Z,31.95
2023-04-09T23:23:58.192Z,32.17
2023-04-09T23:28:59.793Z,34.25
2023-04-09T23:34:01.414Z,31.77
2023-04-09T23:39:03.479Z,31.17
2023-04-09T23:44:05.395Z,30.70
2023-04-09T23:49:07.056Z,32.15
2023-04-09T23:54:08.670Z,29.52
2023-04-09T23:59:10.355Z,30.80
